Cape Girardeau Regional Airport
KCGI : now visible

Airfield :











YOU CAN JOIN US ON...

 
LOGIN :

Register | Disclaimer

   EN    FR    IT 

 









Legend :    VFR   Marginal VFR   IFR   Intensive IFR   Very Intensive IFR
Visi :
Ceiling :
>= 8 km
>= 3000ft
5 to 8 km
1000 to 3000 ft
1500m to 5 km
500 to 1000 ft
800 to 1500m
200 to 500 ft
< 800m
< 200 ft
Symbols :   Thunderstorms  Fog  Heavy snow  Heavy precipitations  Wind > 20 kt






- Airport Elevation : 342 ft
- IATA code : CGI


KCGI - Cape Girardeau Regional

CURRENT METAR :
  • 031353Z 00000KT 10SM FEW002 22/21 A2998 RMK AO2 SLP148 T02220206

EXPIRED METARs :
  • 031328Z 20003KT 4SM BR BKN002 21/21 A2998 RMK AO2 T02110206
  • 031313Z 00000KT 2SM R10/3500VP6000FT BR BKN002 21/21 A2998 RMK AO2 T02110206
  • 031258Z 00000KT 4SM R10/3500VP6000FT BR BKN002 21/21 A2998 RMK AO2 T02110206
  • 031253Z 00000KT 1SM R10/1400VP6000FT BR VV002 21/21 A2997 RMK AO2 SLP147 T02110206
  • 031153Z 00000KT 1/4SM R10/1000V1200FT FG VV002 20/19 A2997 RMK AO2 SLP145 70019 T02000194 10211 20189 53008

TAF KCGI
Valid from the 03 at 12:00 until the 04 at 12:00 UTC


031133Z 0312/0412 VRB02KT 6SM BR FEW060
TEMPO 0312/0313 1/2SM FG
FM031300 32004KT P6SM SCT025 BKN050
FM031800 35008KT P6SM VCTS SCT040 BKN060CB
FM040000 35006KT P6SM BKN100
FM040900 34005KT P6SM SCT012 BKN020
KZME FIR / North America



MET'MAP, your aeronautical weather chart ! - Copyright ORBIFLY December 2007 - Disclaimer

ORBIFLY MET'MAP TEAM :

Programming & Development : Alexandra Zaïnal
Concept & original design : Baudouin d'Aumeries
Assistance for programming : Marc-Olivier Méhu
Technical & hardware support : Manuel Goepfert

Contact : metmap@orbifly.com




SOURCES & CREDITS :

   NOAA       Earth
Advisory